Time;durP1;ratioP1;P1;durP2;ratioP2;P2;SDS_P1;SDS_P2;PMS_P1;PMS_P2;Temp;Humidity;BMP_temperature;BMP_pressure;BME280_temperature;BME280_humidity;BME280_pressure;Samples;Min_cycle;Max_cycle;Signal;HPM_P1;HPM_P2
2023/01/28 00:11:37;;;;;;;15.80;6.60;;;;;;;-0.50;64.30;100975.30;102982;1285;604948;-49
2023/01/28 00:14:04;;;;;;;16.10;7.50;;;;;;;-0.09;63.01;100970.70;104588;1264;82820;-50
2023/01/28 00:16:31;;;;;;;18.30;8.30;;;;;;;-0.17;63.00;100969.70;104823;1266;61225;-50
2023/01/28 00:18:59;;;;;;;18.00;6.80;;;;;;;-0.28;63.06;100968.77;105069;1260;72735;-50
2023/01/28 00:21:26;;;;;;;16.00;6.90;;;;;;;-0.37;63.26;100971.75;105292;1258;71387;-50
2023/01/28 00:23:54;;;;;;;20.20;8.80;;;;;;;-0.47;63.34;100969.42;105191;1261;73812;-50
2023/01/28 00:26:22;;;;;;;21.80;8.00;;;;;;;-0.52;63.48;100969.21;105278;1260;61143;-50
2023/01/28 00:28:49;;;;;;;13.20;6.20;;;;;;;-0.51;63.68;100968.31;105263;1257;61529;-51
2023/01/28 00:31:19;;;;;;;14.00;7.30;;;;;;;-0.48;63.80;100965.83;105144;1259;73091;-50
2023/01/28 00:33:47;;;;;;;19.90;8.70;;;;;;;-0.46;63.91;100966.13;105051;1263;71412;-50
2023/01/28 00:36:16;;;;;;;20.20;9.00;;;;;;;-0.48;63.90;100965.14;105248;1257;73672;-50
2023/01/28 00:38:43;;;;;;;21.20;10.10;;;;;;;-0.50;63.95;100965.54;105069;1257;60405;-50
2023/01/28 00:41:15;;;;;;;15.80;7.90;;;;;;;-0.52;64.09;100965.92;105107;1257;61210;-50
2023/01/28 00:43:44;;;;;;;18.70;9.80;;;;;;;-0.52;64.08;100963.52;105253;1258;74063;-49
2023/01/28 00:46:12;;;;;;;23.20;10.40;;;;;;;-0.59;64.00;100959.20;105207;1261;71183;-49
2023/01/28 00:48:40;;;;;;;23.80;11.60;;;;;;;-0.65;64.09;100967.63;105096;1260;72628;-50
2023/01/28 00:51:11;;;;;;;23.50;9.70;;;;;;;-0.71;64.27;100969.48;105175;1260;59570;-51
2023/01/28 00:53:38;;;;;;;18.90;8.00;;;;;;;-0.70;64.34;100970.86;105010;1257;59848;-52
2023/01/28 00:56:06;;;;;;;24.70;11.20;;;;;;;-0.63;64.40;100970.34;105488;1257;75018;-52
2023/01/28 00:58:33;;;;;;;18.80;7.80;;;;;;;-0.57;64.31;100967.95;105224;1259;69513;-51
2023/01/28 01:01:11;;;;;;;20.90;9.50;;;;;;;-0.59;64.06;100968.84;104945;1260;73392;-52
2023/01/28 01:03:38;;;;;;;17.60;9.20;;;;;;;-0.67;64.42;100966.80;105124;1258;59660;-51
2023/01/28 01:06:06;;;;;;;20.40;9.60;;;;;;;-0.73;64.56;100965.58;105285;1256;60979;-52
2023/01/28 01:08:41;;;;;;;18.40;8.70;;;;;;;-0.80;64.59;100964.70;104861;1255;74004;-51
2023/01/28 01:11:10;;;;;;;21.60;9.70;;;;;;;-0.89;64.64;100960.61;105053;1261;70874;-50
2023/01/28 01:13:38;;;;;;;19.40;6.90;;;;;;;-0.98;64.81;100961.33;105003;1260;72472;-50
2023/01/28 01:16:06;;;;;;;20.50;9.10;;;;;;;-1.06;64.97;100961.69;104938;1258;62091;-50
2023/01/28 01:18:34;;;;;;;20.70;9.00;;;;;;;-1.18;65.13;100963.50;105103;1259;61370;-50
2023/01/28 01:21:01;;;;;;;22.10;9.00;;;;;;;-1.21;65.21;100961.83;105795;1258;73124;-50
2023/01/28 01:23:29;;;;;;;21.70;9.20;;;;;;;-1.20;65.24;100959.75;104997;1260;70079;-50
2023/01/28 01:25:56;;;;;;;15.40;7.50;;;;;;;-1.19;65.43;100956.64;105167;1257;74849;-50
2023/01/28 01:28:23;;;;;;;17.20;7.80;;;;;;;-1.18;65.62;100961.25;105107;1257;60512;-51
2023/01/28 01:31:07;;;;;;;15.70;6.30;;;;;;;-1.17;65.69;100964.69;104991;1257;61001;-51
2023/01/28 01:33:34;;;;;;;18.80;8.30;;;;;;;-1.19;65.62;100963.52;106486;1257;74089;-51
2023/01/28 01:36:01;;;;;;;18.70;9.20;;;;;;;-1.26;65.90;100964.88;104855;1257;71409;-51
2023/01/28 01:38:29;;;;;;;18.20;8.70;;;;;;;-1.29;65.79;100966.81;105018;1263;73339;-51
2023/01/28 01:40:59;;;;;;;23.30;9.40;;;;;;;-1.34;65.71;100962.45;105054;1257;62170;-50
2023/01/28 01:43:47;;;;;;;22.20;8.00;;;;;;;-1.34;65.72;100961.08;105195;1257;61544;-53
2023/01/28 01:46:14;;;;;;;;;;;;;;;-1.35;65.78;100955.77;104884;1260;72989;-49
2023/01/28 01:48:44;;;;;;;15.70;6.80;;;;;;;-1.37;65.81;100953.41;105075;1257;71133;-50
2023/01/28 01:51:17;;;;;;;18.90;8.40;;;;;;;-1.46;66.17;100944.30;105003;1263;72547;-51
2023/01/28 01:53:47;;;;;;;17.40;9.40;;;;;;;-1.55;66.24;100942.26;104987;1257;60265;-50
2023/01/28 01:56:16;;;;;;;19.20;9.10;;;;;;;-1.65;66.53;100946.09;105093;1262;60082;-50
2023/01/28 01:58:43;;;;;;;20.00;10.40;;;;;;;-1.73;66.59;100940.56;105844;1260;74360;-50
2023/01/28 02:01:10;;;;;;;17.00;7.80;;;;;;;-1.72;66.59;100937.25;105374;1260;71259;-51
2023/01/28 02:04:00;;;;;;;23.40;8.30;;;;;;;-1.63;66.45;100936.74;105126;1257;73581;-51
2023/01/28 02:06:27;;;;;;;18.00;7.80;;;;;;;-1.55;66.66;100935.21;105231;1258;59525;-51
2023/01/28 02:08:54;;;;;;;19.20;6.70;;;;;;;-1.52;66.60;100933.22;104986;1257;61698;-51
2023/01/28 02:11:24;;;;;;;18.60;8.00;;;;;;;-1.50;66.58;100929.77;105368;1260;72813;-51
2023/01/28 02:13:52;;;;;;;15.90;7.90;;;;;;;-1.52;66.50;100929.11;105236;1260;70284;-51
2023/01/28 02:16:19;;;;;;;19.80;6.80;;;;;;;-1.53;66.61;100930.16;105062;1256;74261;-51
2023/01/28 02:18:46;;;;;;;17.90;8.80;;;;;;;-1.52;66.71;100929.45;105110;1258;60556;-51
2023/01/28 02:21:14;;;;;;;20.40;8.80;;;;;;;-1.53;66.65;100932.58;105330;1257;60923;-51
2023/01/28 02:24:04;;;;;;;12.80;6.00;;;;;;;-1.48;66.47;100929.72;105201;1260;73997;-50
2023/01/28 02:26:41;;;;;;;14.40;5.90;;;;;;;-1.38;66.25;100930.52;105247;1256;61654;-50
2023/01/28 02:29:30;;;;;;;15.20;8.60;;;;;;;-1.27;65.98;100930.30;105107;1257;72645;-50
2023/01/28 02:32:18;;;;;;;14.70;6.80;;;;;;;-1.20;65.74;100929.45;105023;1257;59828;-51
2023/01/28 02:35:02;;;;;;;20.30;7.70;;;;;;;-1.18;65.72;100927.70;105099;1263;61561;-52
2023/01/28 02:37:38;;;;;;;17.00;6.80;;;;;;;-1.20;65.68;100927.22;105014;1263;65428;-51
2023/01/28 02:40:13;;;;;;;16.40;7.90;;;;;;;-1.22;65.74;100930.02;105187;1257;70210;-51
2023/01/28 02:42:41;;;;;;;;;;;;;;;-1.25;65.66;100925.78;105045;1257;73615;-51
2023/01/28 02:45:15;;;;;;;19.70;8.90;;;;;;;-1.31;65.69;100924.02;104934;1257;60565;-51
2023/01/28 02:47:56;;;;;;;22.80;8.40;;;;;;;-1.41;65.69;100923.89;105319;1260;60330;-51
2023/01/28 02:50:34;;;;;;;20.40;10.60;;;;;;;-1.44;65.57;100925.85;105238;1262;65353;-50
2023/01/28 02:56:32;;;;;;;26.20;10.80;;;;;;;-1.32;65.66;100925.58;105279;1260;63918;-51
2023/01/28 03:02:19;;;;;;;16.70;7.80;;;;;;;-1.25;65.98;100922.17;105258;1257;59755;-50
2023/01/28 03:05:09;;;;;;;23.90;9.30;;;;;;;-1.26;66.02;100921.49;105151;1263;65384;-50
2023/01/28 03:07:39;;;;;;;13.70;6.30;;;;;;;-1.28;65.97;100916.88;105442;1257;62524;-49
2023/01/28 03:10:08;;;;;;;18.20;8.50;;;;;;;-1.34;65.55;100914.95;105054;1257;73676;-49
2023/01/28 03:38:47;;;;;;;21.60;7.20;;;;;;;-1.54;66.25;100934.65;105117;1258;72672;-49
2023/01/28 03:41:21;;;;;;;17.50;7.10;;;;;;;-1.40;66.16;100932.81;105161;1257;60491;-50
2023/01/28 03:43:49;;;;;;;15.80;8.30;;;;;;;-1.29;66.14;100928.28;105121;1257;61935;-49
2023/01/28 03:46:17;;;;;;;13.90;5.70;;;;;;;-1.23;65.86;100929.36;105049;1259;73784;-50
2023/01/28 03:48:44;;;;;;;18.00;7.80;;;;;;;-1.20;65.78;100926.36;105339;1261;71244;-51
2023/01/28 03:51:12;;;;;;;14.40;6.00;;;;;;;-1.23;65.79;100923.85;105259;1263;73189;-49
2023/01/28 04:07:17;;;;;;;18.30;9.30;;;;;;;-0.78;64.70;100941.02;105457;1261;604661;-57
2023/01/28 04:10:12;;;;;;;16.70;7.70;;;;;;;-0.38;63.40;100945.94;106823;1244;340195;-55
2023/01/28 04:12:48;;;;;;;14.20;7.60;;;;;;;-0.48;63.30;100943.06;107468;1244;61194;-54
2023/01/28 04:15:16;;;;;;;15.20;7.40;;;;;;;-0.58;63.28;100944.52;107364;1244;72296;-56
2023/01/28 04:17:46;;;;;;;13.90;6.10;;;;;;;-0.69;63.39;100942.55;107422;1246;71074;-55
2023/01/28 04:20:19;;;;;;;17.20;9.80;;;;;;;-0.79;63.36;100941.77;107305;1244;73473;-56
2023/01/28 04:22:46;;;;;;;18.40;10.10;;;;;;;-0.84;63.40;100946.37;107215;1244;59223;-55
2023/01/28 04:25:14;;;;;;;15.70;6.50;;;;;;;-0.98;63.62;100947.70;107318;1246;61048;-55
2023/01/28 04:27:43;;;;;;;14.90;6.90;;;;;;;-1.13;63.91;100947.20;107331;1246;73048;-55
2023/01/28 04:30:16;;;;;;;18.50;8.00;;;;;;;-1.27;64.32;100949.91;107189;1246;71373;-55
2023/01/28 04:32:50;;;;;;;14.90;6.50;;;;;;;-1.41;64.41;100955.38;107473;1244;73388;-56
2023/01/28 04:35:32;;;;;;;17.10;9.30;;;;;;;-1.51;64.84;100957.82;107291;1243;59568;-55
2023/01/28 04:38:05;;;;;;;16.80;8.30;;;;;;;-1.54;65.17;100960.63;107323;1244;61366;-55
2023/01/28 04:40:52;;;;;;;21.40;9.30;;;;;;;-1.49;65.41;100960.02;107246;1245;73091;-55
2023/01/28 04:43:33;;;;;;;16.50;7.60;;;;;;;-1.41;65.35;100956.23;107279;1246;70004;-55
2023/01/28 04:46:18;;;;;;;18.30;7.00;;;;;;;-1.40;65.45;100960.70;107246;1247;65082;-55
2023/01/28 04:49:02;;;;;;;14.10;6.90;;;;;;;-1.48;65.64;100962.93;107197;1246;60775;-55
2023/01/28 04:51:55;;;;;;;17.70;7.20;;;;;;;-1.50;65.69;100963.14;107189;1243;59750;-56
2023/01/28 04:54:30;;;;;;;18.60;8.30;;;;;;;-1.50;65.60;100963.48;107189;1245;73885;-56
2023/01/28 04:57:00;;;;;;;16.60;8.00;;;;;;;-1.52;65.84;100959.23;107360;1246;70152;-56
2023/01/28 04:59:28;;;;;;;18.90;7.30;;;;;;;-1.57;65.92;100954.15;107409;1244;73626;-57
2023/01/28 05:01:55;;;;;;;20.00;7.70;;;;;;;-1.57;65.74;100960.20;107306;1246;61983;-56
2023/01/28 05:04:22;;;;;;;16.40;7.40;;;;;;;-1.54;65.56;100956.00;107047;1248;59855;-57
2023/01/28 05:06:49;;;;;;;19.00;8.90;;;;;;;-1.52;65.58;100950.45;107151;1245;73703;-57
2023/01/28 05:09:24;;;;;;;19.00;9.60;;;;;;;-1.54;65.73;100946.53;107447;1246;71245;-57
2023/01/28 05:11:51;;;;;;;18.10;8.00;;;;;;;-1.56;65.87;100947.43;107350;1247;73913;-57
2023/01/28 05:14:18;;;;;;;22.20;7.30;;;;;;;-1.61;65.95;100949.61;107220;1243;59549;-56
2023/01/28 05:16:50;;;;;;;18.70;7.70;;;;;;;-1.63;66.14;100948.62;107407;1244;61279;-57
2023/01/28 05:19:18;;;;;;;22.50;9.90;;;;;;;-1.67;66.23;100949.20;107381;1244;72867;-56
2023/01/28 05:21:46;;;;;;;17.40;6.50;;;;;;;-1.69;66.01;100944.27;107464;1246;70019;-57
2023/01/28 05:24:21;;;;;;;14.00;5.20;;;;;;;-1.65;65.90;100945.23;107353;1244;73431;-58
2023/01/28 05:26:48;;;;;;;17.00;8.50;;;;;;;-1.66;66.06;100949.52;107271;1249;59742;-57
2023/01/28 05:29:16;;;;;;;21.10;11.20;;;;;;;-1.66;66.16;100950.05;107248;1250;59692;-57
2023/01/28 05:31:43;;;;;;;17.00;7.20;;;;;;;-1.66;66.31;100954.34;107107;1249;73683;-57
2023/01/28 05:34:10;;;;;;;18.80;6.60;;;;;;;-1.66;66.25;100954.00;107427;1244;71276;-56
2023/01/28 05:36:37;;;;;;;17.50;6.40;;;;;;;-1.68;66.31;100953.19;107144;1249;74414;-55
2023/01/28 05:39:16;;;;;;;15.30;7.50;;;;;;;-1.71;66.34;100949.98;107166;1252;59655;-56
2023/01/28 05:41:43;;;;;;;18.10;7.50;;;;;;;-1.75;66.10;100955.91;107309;1245;62148;-56
2023/01/28 05:44:11;;;;;;;19.10;7.30;;;;;;;-1.74;65.88;100957.44;107329;1246;73786;-56
2023/01/28 05:47:14;;;;;;;21.90;7.30;;;;;;;-1.71;65.94;100959.61;107052;1248;61703;-56
2023/01/28 05:50:10;;;;;;;12.40;5.50;;;;;;;-1.72;66.04;100962.05;107655;1235;64906;-54
2023/01/28 05:52:44;;;;;;;15.40;8.10;;;;;;;-1.75;66.02;100961.08;107485;1241;60134;-55
2023/01/28 05:55:23;;;;;;;18.80;8.90;;;;;;;-1.77;66.09;100963.52;107454;1241;60150;-55
2023/01/28 05:57:50;;;;;;;22.30;8.90;;;;;;;-1.81;66.10;100962.06;107482;1241;73975;-54
2023/01/28 06:00:21;;;;;;;21.70;9.50;;;;;;;-1.85;66.16;100960.42;107711;1240;71071;-55
2023/01/28 06:02:52;;;;;;;23.10;11.00;;;;;;;-1.93;66.39;100957.29;107651;1242;72811;-54
2023/01/28 06:05:19;;;;;;;20.70;7.50;;;;;;;-1.95;66.44;100960.76;111603;1235;61278;-53
2023/01/28 06:07:47;;;;;;;20.00;9.00;;;;;;;-1.92;66.38;100956.73;111298;1237;60100;-53
2023/01/28 06:10:16;;;;;;;16.30;7.70;;;;;;;-1.91;66.42;100964.12;107986;1238;73892;-54
2023/01/28 06:12:44;;;;;;;14.70;9.40;;;;;;;-1.91;66.63;100963.77;107909;1242;70981;-54
2023/01/28 06:15:30;;;;;;;17.50;7.70;;;;;;;-1.93;66.80;100968.27;107999;1240;73370;-53
2023/01/28 06:18:17;;;;;;;19.50;9.30;;;;;;;-1.94;66.83;100971.58;108136;1239;60135;-54
2023/01/28 06:20:44;;;;;;;16.00;6.80;;;;;;;-1.96;66.92;100972.98;108064;1235;61128;-54
2023/01/28 06:23:11;;;;;;;17.90;8.10;;;;;;;-1.99;67.01;100966.85;107872;1236;73938;-56
2023/01/28 06:25:38;;;;;;;20.30;7.30;;;;;;;-1.96;66.98;100969.89;107664;1241;71165;-55
2023/01/28 06:28:10;;;;;;;17.70;9.30;;;;;;;-1.85;66.83;100974.17;107738;1238;73553;-56
2023/01/28 06:30:37;;;;;;;16.50;7.10;;;;;;;-1.76;66.83;100976.05;108006;1239;61772;-55
2023/01/28 06:33:05;;;;;;;15.90;7.80;;;;;;;-1.71;66.77;100972.50;107894;1239;59679;-56
2023/01/28 06:35:34;;;;;;;19.80;8.70;;;;;;;-1.69;66.84;100963.52;108183;1239;73660;-55
2023/01/28 06:54:23;;;;;;;22.00;8.50;;;;;;;-1.45;66.01;100976.42;102508;1292;605151;-55
2023/01/28 06:56:51;;;;;;;19.20;8.10;;;;;;;-1.10;65.20;100983.63;104416;1269;148245;-56
2023/01/28 06:59:20;;;;;;;21.20;9.00;;;;;;;-1.19;65.23;100984.85;104515;1268;61126;-54
2023/01/28 07:01:49;;;;;;;19.70;9.10;;;;;;;-1.25;65.19;100981.73;104612;1268;73187;-55
2023/01/28 07:04:18;;;;;;;28.40;11.20;;;;;;;-1.26;65.12;100982.77;104595;1268;71291;-55
2023/01/28 07:06:46;;;;;;;23.10;11.40;;;;;;;-1.22;65.29;100982.00;104693;1268;72695;-55
2023/01/28 07:09:15;;;;;;;22.50;10.20;;;;;;;-1.23;65.44;100985.80;104908;1265;60558;-57
2023/01/28 07:11:43;;;;;;;19.80;8.90;;;;;;;-1.27;65.39;100986.59;104758;1263;61130;-57
2023/01/28 07:14:11;;;;;;;18.50;8.50;;;;;;;-1.37;65.42;100983.19;108594;1263;73340;-57
2023/01/28 07:16:39;;;;;;;26.10;10.40;;;;;;;-1.45;65.46;100985.77;104922;1265;70404;-56
2023/01/28 07:19:09;;;;;;;22.80;10.00;;;;;;;-1.54;65.56;100986.11;104615;1263;72457;-57
2023/01/28 07:21:39;;;;;;;23.50;10.30;;;;;;;-1.62;65.52;100986.27;108631;1265;60561;-57
2023/01/28 07:24:07;;;;;;;27.00;9.70;;;;;;;-1.73;65.47;100990.77;108838;1259;60210;-55
2023/01/28 07:26:35;;;;;;;23.20;10.20;;;;;;;-1.80;65.76;100994.20;108815;1263;74216;-55
2023/01/28 07:29:07;;;;;;;18.90;6.20;;;;;;;-1.77;65.66;100991.55;105975;1262;71274;-56
2023/01/28 07:31:35;;;;;;;18.30;6.90;;;;;;;-1.67;65.44;100986.55;105106;1265;73863;-56
2023/01/28 07:34:04;;;;;;;18.70;10.20;;;;;;;-1.59;65.28;100987.42;105102;1259;60741;-56
2023/01/28 07:36:33;;;;;;;20.20;8.90;;;;;;;-1.56;65.33;100990.80;105202;1263;60004;-56
2023/01/28 07:52:19;;;;;;;21.40;9.40;;;;;;;-1.37;64.48;100996.06;103150;1288;612546;-52
2023/01/28 07:54:47;;;;;;;19.50;8.90;;;;;;;-1.19;64.10;100991.75;105179;1271;131404;-52
2023/01/28 07:57:22;;;;;;;15.10;7.40;;;;;;;-1.25;64.32;100991.19;104886;1267;61018;-52
2023/01/28 07:59:50;;;;;;;20.40;8.00;;;;;;;-1.32;64.25;100986.17;104958;1264;71981;-52
2023/01/28 08:02:20;;;;;;;22.80;9.50;;;;;;;-1.42;64.28;100982.26;104860;1267;71101;-52
2023/01/28 08:04:48;;;;;;;21.40;10.10;;;;;;;-1.50;64.39;100982.41;104865;1269;73724;-52
2023/01/28 08:07:21;;;;;;;27.10;12.70;;;;;;;-1.60;64.41;100983.13;104815;1265;62212;-52
2023/01/28 08:09:50;;;;;;;22.00;10.00;;;;;;;-1.62;64.44;100988.00;104880;1269;61158;-52
2023/01/28 08:12:18;;;;;;;23.30;9.30;;;;;;;-1.60;64.53;100986.56;104978;1267;72314;-53
2023/01/28 08:14:47;;;;;;;17.50;7.10;;;;;;;-1.55;64.67;100991.64;105003;1267;70268;-53
2023/01/28 08:17:15;;;;;;;19.50;9.60;;;;;;;-1.48;64.71;100991.31;104864;1264;73521;-52
2023/01/28 08:19:43;;;;;;;23.30;10.60;;;;;;;-1.44;64.73;100986.77;104824;1267;60590;-51
2023/01/28 08:22:12;;;;;;;24.10;9.90;;;;;;;-1.44;64.68;100985.06;104838;1266;61236;-51
2023/01/28 08:24:40;;;;;;;20.40;9.50;;;;;;;-1.49;64.74;100984.81;105025;1269;74281;-52
2023/01/28 08:27:09;;;;;;;22.90;8.50;;;;;;;-1.55;64.79;100984.41;104784;1267;71105;-52
2023/01/28 08:29:37;;;;;;;18.60;8.60;;;;;;;-1.63;64.88;100985.26;105012;1267;73520;-52
2023/01/28 08:32:06;;;;;;;20.30;9.00;;;;;;;-1.70;65.05;100981.42;104908;1268;60445;-52
2023/01/28 08:34:35;;;;;;;18.40;8.40;;;;;;;-1.78;65.35;100974.02;105082;1269;61469;-52
2023/01/28 08:37:05;;;;;;;20.50;9.20;;;;;;;-1.85;65.50;100973.30;104882;1269;73928;-52
2023/01/28 08:39:33;;;;;;;19.00;10.90;;;;;;;-1.89;65.79;100967.86;104896;1264;69787;-52
2023/01/28 08:42:02;;;;;;;23.60;8.30;;;;;;;-1.89;65.61;100966.84;104936;1264;73720;-52
2023/01/28 08:44:30;;;;;;;18.90;7.60;;;;;;;-1.93;65.71;100965.86;104807;1267;60528;-51
2023/01/28 08:46:59;;;;;;;16.80;7.70;;;;;;;-1.98;65.86;100959.98;104773;1269;61369;-52
2023/01/28 08:49:30;;;;;;;21.90;8.70;;;;;;;-2.04;66.00;100959.23;104914;1270;72967;-52
2023/01/28 08:51:58;;;;;;;18.10;8.60;;;;;;;-2.15;66.22;100956.32;104822;1267;71453;-52
2023/01/28 08:54:27;;;;;;;17.50;8.10;;;;;;;-2.22;66.36;100960.40;104828;1267;73645;-53
2023/01/28 08:56:55;;;;;;;18.30;8.40;;;;;;;-2.28;66.65;100963.77;104925;1269;60497;-51
2023/01/28 08:59:23;;;;;;;22.90;10.40;;;;;;;-2.28;66.76;100965.65;104821;1265;61211;-50
2023/01/28 09:01:52;;;;;;;21.00;9.30;;;;;;;-2.18;66.57;100965.31;104840;1269;73670;-51
2023/01/28 09:04:20;;;;;;;18.50;7.90;;;;;;;-2.10;66.46;100958.10;104835;1269;70036;-51
2023/01/28 09:06:49;;;;;;;18.60;7.90;;;;;;;-2.07;66.04;100960.63;104747;1267;73914;-51
2023/01/28 09:09:17;;;;;;;22.00;8.60;;;;;;;-2.09;66.04;100956.04;104799;1267;61017;-53
2023/01/28 09:11:46;;;;;;;18.10;8.10;;;;;;;-2.09;66.22;100953.98;104913;1269;60453;-53
2023/01/28 09:14:15;;;;;;;17.50;8.20;;;;;;;-2.08;66.30;100953.61;104837;1269;73954;-53
2023/01/28 09:16:45;;;;;;;20.00;9.00;;;;;;;-2.09;66.22;100947.96;104834;1267;71255;-55
2023/01/28 09:19:13;;;;;;;18.40;10.20;;;;;;;-2.12;66.11;100941.83;105447;1263;72477;-52
2023/01/28 09:21:43;;;;;;;18.80;9.10;;;;;;;-2.09;66.04;100937.98;105338;1259;60909;-52
2023/01/28 09:24:11;;;;;;;15.90;7.00;;;;;;;-2.02;66.05;100933.38;105295;1258;60066;-52
2023/01/28 09:26:40;;;;;;;20.50;8.10;;;;;;;-2.00;65.97;100922.88;105424;1260;74077;-51
2023/01/28 09:29:09;;;;;;;14.00;6.80;;;;;;;-2.04;65.60;100920.52;105406;1262;71435;-54
2023/01/28 09:31:37;;;;;;;17.70;7.70;;;;;;;-2.08;65.63;100915.60;105284;1260;72440;-52
2023/01/28 09:34:06;;;;;;;16.20;6.80;;;;;;;-2.11;65.88;100917.40;105390;1260;59602;-51
2023/01/28 09:36:35;;;;;;;15.60;6.90;;;;;;;-2.14;65.93;100915.90;105347;1257;61240;-51
2023/01/28 09:39:03;;;;;;;21.50;10.90;;;;;;;-2.12;65.88;100911.22;105341;1261;73788;-52
2023/01/28 09:41:45;;;;;;;16.00;5.90;;;;;;;-2.02;65.79;100913.09;105410;1262;70982;-53
2023/01/28 09:44:39;;;;;;;20.50;8.80;;;;;;;-1.89;65.79;100906.65;105425;1261;73609;-52
2023/01/28 09:47:15;;;;;;;18.10;8.20;;;;;;;-1.86;65.54;100899.38;105314;1262;60369;-51
2023/01/28 09:49:46;;;;;;;14.40;6.70;;;;;;;-1.88;65.22;100903.70;105523;1261;60974;-51
2023/01/28 09:52:17;;;;;;;17.50;6.90;;;;;;;-1.90;65.18;100900.30;105463;1262;73968;-52
2023/01/28 09:54:49;;;;;;;13.80;7.30;;;;;;;-1.94;65.09;100902.29;105431;1263;71245;-54
2023/01/28 09:57:21;;;;;;;13.80;7.00;;;;;;;-1.96;65.25;100906.62;105275;1262;72474;-53
2023/01/28 09:59:49;;;;;;;19.30;7.60;;;;;;;-1.93;65.47;100904.33;105182;1264;63000;-52
2023/01/28 10:02:43;;;;;;;16.10;7.10;;;;;;;-1.82;65.23;100897.40;105281;1259;60193;-52
2023/01/28 10:05:17;;;;;;;12.20;6.50;;;;;;;-1.73;64.72;100888.44;105350;1257;74052;-55
2023/01/28 10:07:51;;;;;;;17.00;7.20;;;;;;;-1.72;64.59;100890.81;105306;1263;69436;-51
2023/01/28 10:10:39;;;;;;;14.80;6.40;;;;;;;-1.71;64.40;100890.79;105323;1260;73644;-49
2023/01/28 10:13:14;;;;;;;15.60;7.70;;;;;;;-1.71;64.43;100885.30;105432;1258;59692;-50
2023/01/28 10:15:46;;;;;;;17.70;8.40;;;;;;;-1.68;64.36;100887.48;105473;1263;60214;-51
2023/01/28 10:18:28;;;;;;;18.80;8.80;;;;;;;-1.68;64.42;100891.42;105485;1263;74858;-51
2023/01/28 10:21:12;;;;;;;13.60;6.70;;;;;;;-1.57;64.38;100891.54;105345;1258;71423;-52
2023/01/28 10:23:48;;;;;;;22.20;10.00;;;;;;;-1.47;64.07;100886.86;105277;1264;73650;-51
2023/01/28 10:26:32;;;;;;;17.10;7.40;;;;;;;-1.40;63.95;100884.45;105434;1260;60557;-51
2023/01/28 10:29:18;;;;;;;16.70;7.70;;;;;;;-1.35;64.11;100883.98;105528;1257;59937;-51
2023/01/28 10:31:53;;;;;;;21.80;9.60;;;;;;;-1.28;63.86;100882.13;105408;1263;72972;-51
2023/01/28 10:34:22;;;;;;;20.70;9.60;;;;;;;-1.25;63.46;100879.66;105497;1263;71117;-50
2023/01/28 10:36:50;;;;;;;14.70;6.70;;;;;;;-1.25;63.25;100874.14;105420;1263;73629;-51
2023/01/28 10:39:21;;;;;;;18.30;9.50;;;;;;;-1.24;63.17;100872.04;105334;1258;60537;-51
2023/01/28 10:41:49;;;;;;;17.80;9.50;;;;;;;-1.21;62.93;100865.10;105392;1263;60098;-51
2023/01/28 10:44:34;;;;;;;16.10;8.60;;;;;;;-1.13;62.65;100863.00;105190;1258;72761;-51
2023/01/28 10:47:13;;;;;;;21.20;9.20;;;;;;;-1.15;62.56;100864.25;105230;1264;72372;-51
2023/01/28 10:49:48;;;;;;;17.70;9.20;;;;;;;-1.16;62.65;100860.31;105303;1264;72465;-50
2023/01/28 10:52:17;;;;;;;16.00;9.20;;;;;;;-1.15;62.70;100853.75;105397;1257;60440;-51
2023/01/28 10:54:45;;;;;;;20.20;8.20;;;;;;;-1.11;62.52;100845.05;105745;1258;61779;-54
2023/01/28 10:57:15;;;;;;;19.00;8.40;;;;;;;-1.10;62.54;100840.05;105135;1263;73771;-51
2023/01/28 10:59:43;;;;;;;23.20;9.70;;;;;;;-1.08;62.38;100837.94;105449;1268;69776;-50
2023/01/28 11:02:30;;;;;;;17.80;9.70;;;;;;;-1.06;62.25;100833.55;104998;1263;73636;-50
2023/01/28 11:05:04;;;;;;;16.30;7.30;;;;;;;-0.97;62.20;100835.73;105127;1271;61174;-51
2023/01/28 11:07:33;;;;;;;20.50;8.80;;;;;;;-0.79;61.98;100837.19;105192;1258;61294;-54
2023/01/28 11:10:01;;;;;;;20.60;8.00;;;;;;;-0.67;61.44;100833.27;105219;1258;72984;-53
2023/01/28 11:12:30;;;;;;;20.70;11.30;;;;;;;-0.62;60.85;100830.91;105265;1258;71356;-52
2023/01/28 11:15:00;;;;;;;26.00;9.80;;;;;;;-0.59;60.56;100827.35;105209;1257;73651;-51
2023/01/28 11:17:31;;;;;;;18.60;10.50;;;;;;;-0.56;60.54;100826.76;105616;1270;59675;-50
2023/01/28 11:20:10;;;;;;;18.60;8.60;;;;;;;-0.47;60.52;100827.05;105242;1263;61238;-50
2023/01/28 11:22:41;;;;;;;21.60;8.90;;;;;;;-0.48;60.48;100829.65;105489;1263;74216;-51
2023/01/28 11:25:24;;;;;;;20.80;8.40;;;;;;;-0.48;60.41;100823.62;105068;1263;70998;-52
2023/01/28 11:27:53;;;;;;;21.30;8.10;;;;;;;-0.42;60.48;100824.83;105051;1258;73630;-51
2023/01/28 11:30:26;;;;;;;18.30;9.00;;;;;;;-0.33;60.09;100825.65;105451;1263;60749;-51
2023/01/28 11:33:36;;;;;;;18.90;8.60;;;;;;;-0.29;59.74;100825.36;105401;1257;61007;-51
2023/01/28 11:36:07;;;;;;;19.70;10.10;;;;;;;-0.24;59.40;100825.39;105414;1261;74391;-51
2023/01/28 11:38:45;;;;;;;17.00;9.60;;;;;;;-0.14;59.33;100822.15;105290;1263;70373;-51
2023/01/28 11:41:14;;;;;;;17.40;7.50;;;;;;;-0.03;58.51;100820.50;105281;1262;72347;-50
2023/01/28 11:43:44;;;;;;;16.80;9.70;;;;;;;-0.03;58.76;100814.63;105095;1257;60509;-50
2023/01/28 11:46:33;;;;;;;24.00;10.30;;;;;;;-0.05;58.50;100808.81;105260;1261;61185;-50
2023/01/28 11:49:24;;;;;;;16.90;8.00;;;;;;;-0.05;58.14;100811.38;105311;1263;73790;-51
2023/01/28 11:52:18;;;;;;;16.90;7.40;;;;;;;-0.07;57.99;100808.85;105438;1258;71322;-51
2023/01/28 11:54:53;;;;;;;17.60;8.70;;;;;;;0.02;58.13;100810.68;105365;1263;73507;-49
2023/01/28 11:57:45;;;;;;;23.30;12.50;;;;;;;0.23;57.87;100800.39;105424;1264;59647;-49
2023/01/28 12:00:30;;;;;;;21.10;9.20;;;;;;;0.22;58.05;100795.58;105316;1261;61037;-51
2023/01/28 12:03:17;;;;;;;17.90;7.70;;;;;;;0.34;57.61;100793.85;105646;1263;74155;-50
2023/01/28 12:06:18;;;;;;;18.50;9.30;;;;;;;0.43;57.33;100795.31;105395;1261;71271;-50
2023/01/28 12:09:05;;;;;;;21.10;9.90;;;;;;;0.47;57.52;100790.69;105228;1257;73684;-50
2023/01/28 12:26:15;;;;;;;20.40;10.70;;;;;;;1.23;55.29;100797.82;103226;1283;613738;-50
2023/01/28 12:28:58;;;;;;;21.90;10.20;;;;;;;1.50;54.38;100793.80;104695;1273;85056;-50
2023/01/28 12:31:49;;;;;;;21.30;9.70;;;;;;;1.51;54.51;100791.01;104821;1267;61366;-50
2023/01/28 12:34:57;;;;;;;23.70;10.20;;;;;;;1.50;54.33;100787.22;106041;1264;71426;-49
2023/01/28 12:37:47;;;;;;;21.00;11.20;;;;;;;1.50;54.43;100781.66;104922;1265;71286;-49
2023/01/28 12:40:18;;;;;;;22.50;10.10;;;;;;;1.55;54.37;100777.36;104945;1264;72476;-50
2023/01/28 12:42:55;;;;;;;24.80;9.60;;;;;;;1.56;53.86;100777.16;105092;1263;60570;-50
2023/01/28 12:45:44;;;;;;;21.10;9.70;;;;;;;1.51;54.09;100775.27;105007;1264;60969;-51
2023/01/28 12:48:16;;;;;;;22.60;10.30;;;;;;;1.45;54.04;100776.69;105004;1264;73103;-51
2023/01/28 12:50:52;;;;;;;21.70;9.70;;;;;;;1.40;54.40;100773.92;104910;1264;69862;-50
2023/01/28 12:53:26;;;;;;;23.70;9.40;;;;;;;1.41;54.40;100774.55;104776;1267;73641;-50
2023/01/28 12:55:59;;;;;;;16.60;9.00;;;;;;;1.49;53.95;100769.44;104871;1267;60403;-51
2023/01/28 12:58:38;;;;;;;21.50;10.40;;;;;;;2.33;53.37;100771.48;105038;1264;61320;-51
2023/01/28 13:01:09;;;;;;;26.80;11.90;;;;;;;3.38;51.18;100767.63;104981;1264;73157;-51
2023/01/28 13:03:42;;;;;;;17.50;10.10;;;;;;;4.22;49.12;100764.54;104737;1264;71227;-51
2023/01/28 13:06:14;;;;;;;22.10;10.50;;;;;;;4.92;48.13;100767.72;104754;1263;73741;-51
2023/01/28 13:08:42;;;;;;;25.00;9.90;;;;;;;5.57;46.78;100768.36;104713;1264;60263;-50
2023/01/28 13:11:14;;;;;;;24.90;9.60;;;;;;;6.12;46.09;100764.58;104673;1264;61459;-51
2023/01/28 13:13:44;;;;;;;18.70;10.40;;;;;;;6.63;45.28;100765.74;104684;1269;74239;-50
2023/01/28 13:16:12;;;;;;;22.40;11.80;;;;;;;7.03;43.85;100766.73;104558;1264;69299;-51